createdAt,value
2022-10-26T00:02:09.596Z,76.55
2022-10-26T00:07:11.976Z,76.62
2022-10-26T00:12:14.108Z,76.73
2022-10-26T00:17:16.304Z,76.77
2022-10-26T00:22:18.485Z,77.02
2022-10-26T00:27:20.586Z,76.84
2022-10-26T00:32:22.818Z,76.56
2022-10-26T00:37:24.933Z,76.56
2022-10-26T00:42:27.080Z,76.46
2022-10-26T00:47:37.682Z,76.48
2022-10-26T00:52:40.242Z,76.28
2022-10-26T00:57:42.388Z,76.10
2022-10-26T01:02:46.341Z,76.04
2022-10-26T01:07:49.253Z,76.04
2022-10-26T01:12:51.738Z,75.75
2022-10-26T01:18:16.947Z,75.68
2022-10-26T01:23:35.279Z,75.65
2022-10-26T01:29:07.679Z,75.84
2022-10-26T01:34:32.786Z,75.57
2022-10-26T01:39:40.741Z,75.52
2022-10-26T01:44:54.246Z,75.33
2022-10-26T01:49:58.998Z,75.24
2022-10-26T01:55:07.029Z,75.20
2022-10-26T02:00:10.799Z,75.25
2022-10-26T02:05:33.298Z,75.24
2022-10-26T02:10:51.160Z,75.05
2022-10-26T02:16:21.188Z,75.22
2022-10-26T02:21:28.553Z,75.22
2022-10-26T02:26:31.514Z,75.15
2022-10-26T02:31:35.235Z,75.14
2022-10-26T02:36:40.884Z,75.22
2022-10-26T02:41:44.671Z,75.29
2022-10-26T02:46:46.821Z,75.23
2022-10-26T02:52:25.880Z,75.56
2022-10-26T02:57:42.444Z,75.46
2022-10-26T03:02:53.568Z,75.37
2022-10-26T03:07:56.497Z,75.25
2022-10-26T03:12:58.641Z,75.14
2022-10-26T03:18:00.806Z,75.01
2022-10-26T03:23:03.090Z,75.14
2022-10-26T03:28:06.070Z,75.13
2022-10-26T03:33:08.364Z,75.25
2022-10-26T03:38:15.156Z,74.99
2022-10-26T03:43:18.669Z,75.19
2022-10-26T03:48:20.818Z,75.22
2022-10-26T03:53:22.955Z,75.04
2022-10-26T04:03:28.103Z,75.07
2022-10-26T04:08:30.283Z,74.94
2022-10-26T04:13:32.697Z,74.97
2022-10-26T04:18:34.837Z,74.87
2022-10-26T04:23:36.978Z,74.90
2022-10-26T04:28:39.214Z,74.88
2022-10-26T04:33:41.372Z,74.83
2022-10-26T04:38:43.465Z,74.78
2022-10-26T04:43:45.647Z,74.69
2022-10-26T04:48:50.856Z,74.89
2022-10-26T04:53:56.154Z,74.95
2022-10-26T04:58:58.638Z,74.66
2022-10-26T05:04:01.097Z,74.61
2022-10-26T05:09:03.714Z,74.54
2022-10-26T05:14:05.900Z,74.45
2022-10-26T05:19:08.088Z,74.48
2022-10-26T05:24:12.482Z,74.37
2022-10-26T05:29:14.884Z,74.20
2022-10-26T05:34:17.017Z,74.25
2022-10-26T05:39:19.222Z,74.31
2022-10-26T05:44:21.796Z,74.16
2022-10-26T05:49:24.037Z,73.99
2022-10-26T05:54:26.167Z,73.99
2022-10-26T05:59:28.660Z,73.84
2022-10-26T06:04:38.998Z,73.84
2022-10-26T06:09:42.230Z,73.65
2022-10-26T06:14:44.718Z,73.50
2022-10-26T06:20:11.197Z,73.15
2022-10-26T06:25:19.203Z,73.35
2022-10-26T06:30:23.552Z,73.06
2022-10-26T06:35:33.733Z,72.63
2022-10-26T06:40:37.178Z,72.65
2022-10-26T06:45:41.712Z,72.80
2022-10-26T06:50:52.036Z,72.52
2022-10-26T06:55:54.308Z,72.44
2022-10-26T07:00:57.613Z,72.49
2022-10-26T07:06:00.144Z,72.16
2022-10-26T07:11:02.339Z,72.05
2022-10-26T07:16:04.796Z,71.93
2022-10-26T07:21:06.950Z,72.15
2022-10-26T07:26:09.101Z,71.56
2022-10-26T07:31:11.275Z,71.75
2022-10-26T07:36:13.628Z,71.31
2022-10-26T07:41:15.793Z,71.21
2022-10-26T07:46:18.649Z,71.32
2022-10-26T07:51:22.087Z,71.02
2022-10-26T07:56:24.296Z,70.82
2022-10-26T08:01:26.703Z,70.76
2022-10-26T08:06:28.953Z,70.85
2022-10-26T08:11:31.253Z,69.88
2022-10-26T08:16:35.209Z,69.79
2022-10-26T08:21:40.182Z,69.21
2022-10-26T08:26:43.082Z,68.87
2022-10-26T08:31:45.403Z,67.95
2022-10-26T08:36:47.610Z,66.68
2022-10-26T08:41:53.676Z,66.20
2022-10-26T08:47:00.231Z,65.98
2022-10-26T08:52:03.030Z,66.17
2022-10-26T08:57:14.977Z,65.30
2022-10-26T09:02:18.274Z,65.41
2022-10-26T09:07:42.179Z,63.93
2022-10-26T09:13:12.168Z,63.63
2022-10-26T09:18:32.636Z,63.38
2022-10-26T09:24:01.008Z,63.60
2022-10-26T09:29:07.133Z,64.14
2022-10-26T09:34:21.075Z,63.80
2022-10-26T09:39:37.141Z,63.16
2022-10-26T09:44:56.077Z,63.14
2022-10-26T09:50:15.075Z,63.52
2022-10-26T09:55:17.422Z,64.46
2022-10-26T10:00:22.102Z,63.82
2022-10-26T10:05:52.150Z,64.15
2022-10-26T10:11:08.134Z,64.03
2022-10-26T10:16:13.722Z,63.79
2022-10-26T10:21:15.930Z,64.32
2022-10-26T10:26:18.562Z,63.75
2022-10-26T10:31:23.141Z,63.69
2022-10-26T10:36:29.523Z,63.58
2022-10-26T10:41:36.738Z,63.37
2022-10-26T10:46:39.071Z,63.34
2022-10-26T10:51:41.354Z,63.32
2022-10-26T10:56:43.539Z,63.20
2022-10-26T11:01:49.643Z,63.24
2022-10-26T11:06:52.270Z,63.39
2022-10-26T11:12:16.889Z,62.89
2022-10-26T11:17:19.151Z,63.51
2022-10-26T11:22:29.049Z,62.88
2022-10-26T11:27:49.816Z,62.37
2022-10-26T11:33:00.104Z,62.94
2022-10-26T11:38:05.775Z,63.26
2022-10-26T11:43:23.124Z,63.10
2022-10-26T11:48:32.805Z,63.06
2022-10-26T11:53:36.977Z,63.73
2022-10-26T11:58:39.353Z,63.82
2022-10-26T12:03:47.946Z,63.50
2022-10-26T12:09:14.106Z,62.95
2022-10-26T12:14:24.316Z,63.46
2022-10-26T12:19:43.598Z,62.99
2022-10-26T12:24:46.932Z,63.65
2022-10-26T12:29:51.847Z,63.52
2022-10-26T12:34:55.144Z,63.83
2022-10-26T12:40:35.210Z,63.40
2022-10-26T12:45:37.323Z,63.59
2022-10-26T12:50:39.476Z,63.28
2022-10-26T12:55:51.433Z,62.74
2022-10-26T13:01:00.015Z,62.90
2022-10-26T13:06:36.191Z,62.26
2022-10-26T13:11:46.525Z,62.42
2022-10-26T13:16:49.007Z,62.85
2022-10-26T13:21:51.862Z,62.65
2022-10-26T13:27:06.490Z,62.35
2022-10-26T13:32:08.841Z,62.88
2022-10-26T13:37:23.961Z,62.20
2022-10-26T13:42:37.557Z,62.65
2022-10-26T13:47:55.900Z,62.25
2022-10-26T13:53:01.409Z,62.71
2022-10-26T13:58:28.572Z,62.50
2022-10-26T14:03:31.633Z,62.94
2022-10-26T14:08:33.870Z,63.51
2022-10-26T14:13:40.312Z,63.25
2022-10-26T14:18:44.876Z,63.35
2022-10-26T14:23:53.160Z,63.45
2022-10-26T14:29:00.569Z,63.34
2022-10-26T14:34:05.072Z,63.63
2022-10-26T14:39:18.435Z,63.86
2022-10-26T14:44:23.180Z,64.07
2022-10-26T14:49:27.582Z,64.16
2022-10-26T14:54:30.253Z,64.34
2022-10-26T14:59:32.503Z,64.60
2022-10-26T15:04:36.856Z,64.75
2022-10-26T15:09:53.464Z,64.86
2022-10-26T15:14:57.253Z,64.97
2022-10-26T15:20:07.265Z,65.26
2022-10-26T15:25:17.946Z,65.41
2022-10-26T15:30:28.171Z,65.70
2022-10-26T15:35:33.637Z,65.41
2022-10-26T15:40:42.898Z,66.03
2022-10-26T15:45:48.324Z,66.11
2022-10-26T15:50:50.480Z,66.16
2022-10-26T15:55:54.614Z,66.29
2022-10-26T16:00:56.909Z,66.52
2022-10-26T16:06:01.297Z,66.34
2022-10-26T16:11:03.764Z,66.80
2022-10-26T16:16:12.254Z,66.96
2022-10-26T16:21:15.832Z,67.07
2022-10-26T16:26:18.751Z,67.13
2022-10-26T16:31:22.316Z,67.20
2022-10-26T16:36:27.961Z,67.25
2022-10-26T16:41:32.273Z,67.26
2022-10-26T16:46:34.632Z,67.34
2022-10-26T16:51:36.847Z,67.52
2022-10-26T16:56:41.516Z,67.44
2022-10-26T17:01:43.934Z,67.57
2022-10-26T17:06:46.350Z,67.70
2022-10-26T17:11:48.677Z,67.45
2022-10-26T17:16:50.871Z,67.59
2022-10-26T17:21:53.149Z,67.60
2022-10-26T17:26:55.520Z,67.71
2022-10-26T17:31:58.011Z,67.77
2022-10-26T17:37:00.359Z,67.83
2022-10-26T17:42:05.134Z,67.77
2022-10-26T17:47:07.685Z,67.73
2022-10-26T17:52:12.294Z,67.83
2022-10-26T17:57:15.575Z,68.05
2022-10-26T18:02:17.950Z,68.08
2022-10-26T18:07:23.337Z,68.11
2022-10-26T18:12:25.610Z,68.13
2022-10-26T18:17:27.793Z,68.20
2022-10-26T18:22:30.161Z,68.30
2022-10-26T18:27:32.540Z,68.33
2022-10-26T18:32:34.845Z,68.36
2022-10-26T18:37:50.712Z,68.86
2022-10-26T18:42:55.958Z,68.17
2022-10-26T18:47:58.284Z,68.17
2022-10-26T18:53:00.685Z,68.35
2022-10-26T18:58:04.206Z,68.37
2022-10-26T19:03:09.161Z,68.35
2022-10-26T19:08:11.641Z,68.32
2022-10-26T19:13:14.609Z,68.25
2022-10-26T19:18:17.100Z,68.29
2022-10-26T19:23:19.457Z,68.25
2022-10-26T19:28:21.667Z,68.42
2022-10-26T19:33:25.397Z,68.74
2022-10-26T19:38:28.180Z,68.63
2022-10-26T19:43:32.301Z,68.74
2022-10-26T19:48:34.703Z,68.61
2022-10-26T19:53:36.885Z,68.75
2022-10-26T19:58:40.639Z,68.75
2022-10-26T20:03:43.403Z,68.92
2022-10-26T20:08:48.234Z,68.91
2022-10-26T20:13:50.477Z,68.96
2022-10-26T20:18:52.769Z,68.79
2022-10-26T20:23:55.014Z,68.67
2022-10-26T20:28:57.294Z,69.03
2022-10-26T20:33:59.575Z,69.07
2022-10-26T20:39:02.046Z,68.94
2022-10-26T20:44:04.610Z,68.96
2022-10-26T20:49:09.576Z,68.65
2022-10-26T20:54:24.565Z,68.99
2022-10-26T21:04:34.991Z,68.65
2022-10-26T21:09:37.194Z,68.75
2022-10-26T21:14:41.145Z,68.77
2022-10-26T21:19:43.403Z,68.62
2022-10-26T21:24:45.570Z,68.68
2022-10-26T21:29:47.700Z,68.90
2022-10-26T21:34:49.837Z,68.70
2022-10-26T21:39:52.024Z,68.69
2022-10-26T21:44:54.241Z,68.66
2022-10-26T21:49:56.441Z,68.75
2022-10-26T21:54:58.603Z,69.13
2022-10-26T22:00:00.717Z,68.88
2022-10-26T22:05:02.955Z,68.89
2022-10-26T22:10:13.145Z,68.85
2022-10-26T22:15:15.961Z,68.95
2022-10-26T22:20:18.200Z,68.89
2022-10-26T22:25:20.517Z,68.68
2022-10-26T22:30:23.591Z,68.75
2022-10-26T22:35:29.578Z,68.63
2022-10-26T22:40:32.169Z,68.74
2022-10-26T22:45:34.419Z,69.02
2022-10-26T22:50:38.483Z,68.94
2022-10-26T22:55:45.507Z,69.05
2022-10-26T23:00:47.809Z,69.11
2022-10-26T23:05:50.053Z,69.24
2022-10-26T23:10:52.295Z,69.19
2022-10-26T23:15:54.936Z,69.03
2022-10-26T23:20:57.435Z,69.35
2022-10-26T23:26:03.928Z,69.48
2022-10-26T23:31:06.745Z,69.28
2022-10-26T23:36:08.901Z,69.05
2022-10-26T23:41:13.008Z,69.26
2022-10-26T23:46:15.636Z,69.26
2022-10-26T23:51:17.839Z,68.95
2022-10-26T23:56:20.004Z,69.29
